createdAt,value
2022-09-14T00:01:33.334Z,79.01
2022-09-14T00:04:06.579Z,78.46
2022-09-14T00:06:34.757Z,77.57
2022-09-14T00:09:02.583Z,77.82
2022-09-14T00:11:32.015Z,78.29
2022-09-14T00:14:00.772Z,78.15
2022-09-14T00:16:30.472Z,77.71
2022-09-14T00:19:06.484Z,78.13
2022-09-14T00:21:44.317Z,77.47
2022-09-14T00:24:11.993Z,77.17
2022-09-14T00:26:38.891Z,77.24
2022-09-14T00:29:06.369Z,77.63
2022-09-14T00:31:35.816Z,77.00
2022-09-14T00:34:04.203Z,77.42
2022-09-14T00:36:32.711Z,78.10
2022-09-14T00:39:00.965Z,77.67
2022-09-14T00:41:32.066Z,77.71
2022-09-14T00:44:06.285Z,76.50
2022-09-14T00:46:37.901Z,78.37
2022-09-14T00:49:22.994Z,78.62
2022-09-14T00:51:52.919Z,78.67
2022-09-14T00:54:20.577Z,79.90
2022-09-14T00:56:48.918Z,80.03
2022-09-14T00:59:21.184Z,80.20
2022-09-14T01:01:49.389Z,78.77
2022-09-14T01:04:17.553Z,76.88
2022-09-14T01:07:00.623Z,76.12
2022-09-14T01:09:57.618Z,76.37
2022-09-14T01:12:48.449Z,76.56
2022-09-14T01:15:19.135Z,76.86
2022-09-14T01:18:14.605Z,76.56
2022-09-14T01:21:07.481Z,76.75
2022-09-14T01:23:53.056Z,76.63
2022-09-14T01:26:40.060Z,75.44
2022-09-14T01:29:16.156Z,74.99
2022-09-14T01:31:49.147Z,73.11
2022-09-14T01:34:36.938Z,72.06
2022-09-14T01:37:13.360Z,73.02
2022-09-14T01:39:55.096Z,74.94
2022-09-14T01:42:25.590Z,75.73
2022-09-14T01:44:57.364Z,75.01
2022-09-14T01:47:39.424Z,75.49
2022-09-14T01:50:20.523Z,72.19
2022-09-14T01:52:55.871Z,71.86
2022-09-14T01:55:32.984Z,72.70
2022-09-14T01:58:14.681Z,71.10
2022-09-14T02:00:46.149Z,71.20
2022-09-14T02:03:18.924Z,70.68
2022-09-14T02:06:02.934Z,71.49
2022-09-14T02:08:31.153Z,73.23
2022-09-14T02:10:59.190Z,73.51
2022-09-14T02:13:27.058Z,74.20
2022-09-14T02:15:54.158Z,73.93
2022-09-14T02:18:22.025Z,73.35
2022-09-14T02:21:17.602Z,72.96
2022-09-14T02:23:44.869Z,73.26
2022-09-14T02:26:11.989Z,75.47
2022-09-14T02:28:39.056Z,75.47
2022-09-14T02:31:54.651Z,72.82
2022-09-14T02:34:32.327Z,72.07
2022-09-14T02:37:09.867Z,71.90
2022-09-14T02:40:34.094Z,73.09
2022-09-14T02:43:27.379Z,73.99
2022-09-14T02:46:13.534Z,73.10
2022-09-14T02:49:04.882Z,74.56
2022-09-14T02:51:38.246Z,76.81
2022-09-14T02:54:14.802Z,76.27
2022-09-14T02:56:42.308Z,76.13
2022-09-14T02:59:11.308Z,76.61
2022-09-14T03:01:38.635Z,77.03
2022-09-14T03:04:05.552Z,76.61
2022-09-14T03:06:32.852Z,76.29
2022-09-14T03:09:00.177Z,75.20
2022-09-14T03:11:27.018Z,75.74
2022-09-14T03:13:53.992Z,75.83
2022-09-14T03:16:20.946Z,76.15
2022-09-14T03:18:48.013Z,74.45
2022-09-14T03:21:17.517Z,72.54
2022-09-14T03:23:50.544Z,70.34
2022-09-14T03:26:20.296Z,70.78
2022-09-14T03:28:55.561Z,70.37
2022-09-14T03:31:23.494Z,73.06
2022-09-14T03:33:55.331Z,73.68
2022-09-14T03:36:22.971Z,73.00
2022-09-14T03:38:52.196Z,71.62
2022-09-14T03:41:20.484Z,69.58
2022-09-14T03:43:47.598Z,69.04
2022-09-14T03:46:17.024Z,68.68
2022-09-14T03:48:44.554Z,68.13
2022-09-14T03:51:13.431Z,67.54
2022-09-14T03:53:41.438Z,67.85
2022-09-14T03:56:10.707Z,67.32
2022-09-14T03:58:38.363Z,66.21
2022-09-14T04:01:07.587Z,69.72
2022-09-14T04:03:34.830Z,69.53
2022-09-14T04:06:05.458Z,69.41
2022-09-14T04:08:37.370Z,68.28
2022-09-14T04:11:19.090Z,66.30
2022-09-14T04:13:46.871Z,65.18
2022-09-14T04:16:15.131Z,64.19
2022-09-14T04:18:42.354Z,62.49
2022-09-14T04:21:19.151Z,62.26
2022-09-14T04:26:34.558Z,62.47
2022-09-14T04:29:01.471Z,63.05
2022-09-14T04:31:28.915Z,63.13
2022-09-14T04:33:57.277Z,63.66
2022-09-14T04:36:28.680Z,62.62
2022-09-14T04:38:58.215Z,62.25
2022-09-14T04:41:26.297Z,61.15
2022-09-14T04:43:54.189Z,60.92
2022-09-14T04:46:24.318Z,60.38
2022-09-14T04:48:51.639Z,61.26
2022-09-14T04:51:21.343Z,58.90
2022-09-14T04:53:51.098Z,58.41
2022-09-14T04:56:19.857Z,59.14
2022-09-14T04:58:51.633Z,56.98
2022-09-14T05:01:24.407Z,54.96
2022-09-14T05:03:52.615Z,52.31
2022-09-14T05:06:22.814Z,47.05
2022-09-14T05:08:51.219Z,43.76
2022-09-14T05:11:21.604Z,40.30
2022-09-14T05:13:50.222Z,37.02
2022-09-14T05:16:22.969Z,33.93
2022-09-14T05:18:51.109Z,31.52
2022-09-14T05:21:20.464Z,29.71
2022-09-14T05:23:48.239Z,29.31
2022-09-14T05:26:15.583Z,28.02
2022-09-14T05:28:42.510Z,27.67
2022-09-14T05:31:13.280Z,27.19
2022-09-14T05:33:40.452Z,25.54
2022-09-14T05:36:09.039Z,24.16
2022-09-14T05:38:38.293Z,23.54
2022-09-14T05:41:06.940Z,24.91
2022-09-14T05:43:34.160Z,26.78
2022-09-14T05:46:02.747Z,29.69
2022-09-14T05:48:36.285Z,27.72
2022-09-14T05:51:07.577Z,28.38
2022-09-14T05:53:34.695Z,28.95
2022-09-14T05:56:01.645Z,30.21
2022-09-14T05:58:28.546Z,33.38
2022-09-14T06:00:55.695Z,36.22
2022-09-14T06:03:23.240Z,37.09
2022-09-14T06:05:50.148Z,38.51
2022-09-14T06:08:17.138Z,36.62
2022-09-14T06:10:44.485Z,35.42
2022-09-14T06:13:11.409Z,33.67
2022-09-14T06:15:38.744Z,32.47
2022-09-14T06:18:05.678Z,30.55
2022-09-14T06:20:32.543Z,27.55
2022-09-14T06:22:59.459Z,27.70
2022-09-14T06:25:28.214Z,28.15
2022-09-14T06:27:55.311Z,28.34
2022-09-14T06:30:22.533Z,28.36
2022-09-14T06:32:49.507Z,26.66
2022-09-14T06:35:16.558Z,25.83
2022-09-14T06:37:43.446Z,25.28
2022-09-14T06:40:10.931Z,26.53
2022-09-14T06:42:37.851Z,25.39
2022-09-14T06:45:06.025Z,26.17
2022-09-14T06:47:33.736Z,27.24
2022-09-14T06:50:00.742Z,26.32
2022-09-14T06:52:30.556Z,26.45
2022-09-14T06:55:00.522Z,27.25
2022-09-14T06:57:27.382Z,27.83
2022-09-14T06:59:54.275Z,25.49
2022-09-14T07:02:21.387Z,23.17
2022-09-14T07:04:48.286Z,22.08
2022-09-14T07:07:16.497Z,21.65
2022-09-14T07:09:43.412Z,23.35
2022-09-14T07:12:11.739Z,22.51
2022-09-14T07:14:38.724Z,23.18
2022-09-14T07:17:06.139Z,23.70
2022-09-14T07:19:33.187Z,23.84
2022-09-14T07:22:00.987Z,24.62
2022-09-14T07:24:27.982Z,24.87
2022-09-14T07:26:54.902Z,24.19
2022-09-14T07:29:22.102Z,23.69
2022-09-14T07:31:51.511Z,24.42
2022-09-14T07:34:18.767Z,25.38
2022-09-14T07:36:46.261Z,24.07
2022-09-14T07:39:17.713Z,23.11
2022-09-14T07:41:44.948Z,22.97
2022-09-14T07:44:15.254Z,22.50
2022-09-14T07:46:44.067Z,22.43
2022-09-14T07:49:12.139Z,22.44
2022-09-14T07:51:40.327Z,23.47
2022-09-14T07:54:08.997Z,22.12
2022-09-14T07:56:35.917Z,21.61
2022-09-14T07:59:30.836Z,22.03
2022-09-14T08:01:51.364Z,21.18
2022-09-14T08:04:18.297Z,20.80
2022-09-14T08:06:45.243Z,21.24
2022-09-14T08:09:12.390Z,21.21
2022-09-14T08:11:39.315Z,21.96
2022-09-14T08:14:12.043Z,22.04
2022-09-14T08:16:40.870Z,20.43
2022-09-14T08:19:21.115Z,20.57
2022-09-14T08:21:48.318Z,21.62
2022-09-14T08:24:18.254Z,21.94
2022-09-14T08:26:46.136Z,21.00
2022-09-14T08:29:14.535Z,19.62
2022-09-14T08:31:42.663Z,19.57
2022-09-14T08:34:09.629Z,19.53
2022-09-14T08:36:38.603Z,19.18
2022-09-14T08:39:09.302Z,19.82
2022-09-14T08:41:45.075Z,19.87
2022-09-14T08:44:11.829Z,20.23
2022-09-14T08:46:50.452Z,19.33
2022-09-14T08:49:26.239Z,19.53
2022-09-14T08:51:53.185Z,21.17
2022-09-14T08:54:20.095Z,22.96
2022-09-14T08:56:54.865Z,20.52
2022-09-14T08:59:40.208Z,19.02
2022-09-14T09:02:29.140Z,18.62
2022-09-14T09:05:07.702Z,19.27
2022-09-14T09:08:06.913Z,19.39
2022-09-14T09:10:35.520Z,21.02
2022-09-14T09:13:05.798Z,20.80
2022-09-14T09:15:51.783Z,19.91
2022-09-14T09:18:41.095Z,19.00
2022-09-14T09:21:40.361Z,19.82
2022-09-14T09:24:26.185Z,18.33
2022-09-14T09:26:53.337Z,17.53
2022-09-14T09:29:20.279Z,16.68
2022-09-14T09:32:08.961Z,17.62
2022-09-14T09:34:38.878Z,17.25
2022-09-14T09:37:16.979Z,18.67
2022-09-14T09:39:44.729Z,18.92
2022-09-14T09:42:22.205Z,18.46
2022-09-14T09:45:01.504Z,19.33
2022-09-14T09:47:43.592Z,17.64
2022-09-14T09:50:13.757Z,16.70
2022-09-14T09:52:54.004Z,16.89
2022-09-14T09:55:23.788Z,18.45
2022-09-14T09:57:50.654Z,20.22
2022-09-14T10:00:29.948Z,20.60
2022-09-14T10:03:01.559Z,20.64
2022-09-14T10:05:32.364Z,18.68
2022-09-14T10:08:09.336Z,18.29
2022-09-14T10:10:39.313Z,17.66
2022-09-14T10:13:38.175Z,18.28
2022-09-14T10:16:18.042Z,18.04
2022-09-14T10:18:51.038Z,19.62
2022-09-14T10:21:23.008Z,18.84
2022-09-14T10:24:21.656Z,18.25
2022-09-14T10:26:48.651Z,16.76
2022-09-14T10:29:27.221Z,17.58
2022-09-14T10:32:02.229Z,17.33
2022-09-14T10:34:29.427Z,18.46
2022-09-14T10:37:54.286Z,19.22
2022-09-14T10:40:32.405Z,18.23
2022-09-14T10:43:22.503Z,17.69
2022-09-14T10:45:59.259Z,16.99
2022-09-14T10:48:34.883Z,17.64
2022-09-14T10:51:20.433Z,17.17
2022-09-14T10:53:56.703Z,16.89
2022-09-14T10:56:35.033Z,17.25
2022-09-14T10:59:01.836Z,16.92
2022-09-14T11:01:28.712Z,16.92
2022-09-14T11:04:20.263Z,16.09
2022-09-14T11:06:59.013Z,16.94
2022-09-14T11:09:43.891Z,18.59
2022-09-14T11:12:42.592Z,17.99
2022-09-14T11:15:24.297Z,17.09
2022-09-14T11:17:51.214Z,16.93
2022-09-14T11:20:26.262Z,16.26
2022-09-14T11:23:11.323Z,16.87
2022-09-14T11:25:56.909Z,18.62
2022-09-14T11:28:45.022Z,18.35
2022-09-14T11:31:21.334Z,16.80
2022-09-14T11:34:11.226Z,15.63
2022-09-14T11:36:44.777Z,15.86
2022-09-14T11:39:21.334Z,14.83
2022-09-14T11:42:04.244Z,14.11
2022-09-14T11:44:37.941Z,15.33
2022-09-14T11:47:14.070Z,16.51
2022-09-14T11:49:47.655Z,14.99
2022-09-14T11:52:21.035Z,14.40
2022-09-14T11:54:50.380Z,13.98
2022-09-14T11:57:27.812Z,15.77
2022-09-14T12:00:00.300Z,16.25
2022-09-14T12:02:27.757Z,16.38
2022-09-14T12:05:07.261Z,16.61
2022-09-14T12:07:40.276Z,15.76
2022-09-14T12:10:16.800Z,14.21
2022-09-14T12:12:55.812Z,14.35
2022-09-14T12:15:26.225Z,13.32
2022-09-14T12:18:14.950Z,13.16
2022-09-14T12:21:02.867Z,15.19
2022-09-14T12:23:29.746Z,14.96
2022-09-14T12:26:05.910Z,14.80
2022-09-14T12:28:35.657Z,15.79
2022-09-14T12:31:05.556Z,15.73
2022-09-14T12:33:32.463Z,15.28
2022-09-14T12:36:03.042Z,14.84
2022-09-14T12:38:29.922Z,15.12
2022-09-14T12:41:01.995Z,14.47
2022-09-14T12:43:35.007Z,14.10
2022-09-14T12:46:30.414Z,14.29
2022-09-14T12:49:16.820Z,14.63
2022-09-14T12:51:49.027Z,13.43
2022-09-14T12:54:26.493Z,14.16
2022-09-14T12:57:00.980Z,18.19
2022-09-14T12:59:42.746Z,24.19
2022-09-14T13:02:12.681Z,23.44
2022-09-14T13:04:42.066Z,17.53
2022-09-14T13:07:18.263Z,16.53
2022-09-14T13:09:57.229Z,23.00
2022-09-14T13:12:34.961Z,23.58
2022-09-14T13:15:25.697Z,25.72
2022-09-14T13:18:16.918Z,28.56
2022-09-14T13:21:12.206Z,27.82
2022-09-14T13:23:42.094Z,29.60
2022-09-14T13:26:17.072Z,29.02
2022-09-14T13:28:46.860Z,31.44
2022-09-14T13:31:18.955Z,30.57
2022-09-14T13:33:52.182Z,29.84
2022-09-14T13:36:26.026Z,29.58
2022-09-14T13:38:54.405Z,30.93
2022-09-14T13:41:23.491Z,28.59
2022-09-14T13:43:54.464Z,29.46
2022-09-14T13:46:26.509Z,29.05
2022-09-14T13:48:53.798Z,30.17
2022-09-14T13:51:27.263Z,31.02
2022-09-14T13:53:57.499Z,30.97
2022-09-14T13:56:31.321Z,32.42
2022-09-14T13:59:20.676Z,31.37
2022-09-14T14:01:59.649Z,31.00
2022-09-14T14:04:34.940Z,31.49
2022-09-14T14:07:07.046Z,33.62
2022-09-14T14:09:45.242Z,32.32
2022-09-14T14:12:23.049Z,32.62
2022-09-14T14:14:58.636Z,33.03
2022-09-14T14:17:28.502Z,33.64
2022-09-14T14:20:00.966Z,35.00
2022-09-14T14:22:31.738Z,34.38
2022-09-14T14:25:14.645Z,34.39
2022-09-14T14:27:47.827Z,33.84
2022-09-14T14:30:18.277Z,33.44
2022-09-14T14:32:51.074Z,34.72
2022-09-14T14:35:22.888Z,34.63
2022-09-14T14:37:50.333Z,33.00
2022-09-14T14:40:18.280Z,32.27
2022-09-14T14:42:46.081Z,34.30
2022-09-14T14:45:21.420Z,36.38
2022-09-14T14:47:50.698Z,36.71
2022-09-14T14:50:22.104Z,37.06
2022-09-14T14:52:50.369Z,38.67
2022-09-14T14:55:17.850Z,39.14
2022-09-14T14:57:44.730Z,37.87
2022-09-14T15:00:18.007Z,38.46
2022-09-14T15:02:45.227Z,37.94
2022-09-14T15:05:13.088Z,38.67
2022-09-14T15:07:40.663Z,41.38
2022-09-14T15:10:09.736Z,41.73
2022-09-14T15:12:36.647Z,42.40
2022-09-14T15:15:03.897Z,41.71
2022-09-14T15:17:30.868Z,42.59
2022-09-14T15:19:57.777Z,42.98
2022-09-14T15:22:25.313Z,42.79
2022-09-14T15:24:52.326Z,43.08
2022-09-14T15:27:19.218Z,43.96
2022-09-14T15:29:46.193Z,44.55
2022-09-14T15:32:13.196Z,44.21
2022-09-14T15:34:41.098Z,43.22
2022-09-14T15:37:09.760Z,43.45
2022-09-14T15:39:36.912Z,44.39
2022-09-14T15:42:04.111Z,45.90
2022-09-14T15:44:32.980Z,48.02
2022-09-14T15:46:59.919Z,48.46
2022-09-14T15:49:26.856Z,48.40
2022-09-14T15:51:56.249Z,47.66
2022-09-14T15:54:25.197Z,47.80
2022-09-14T15:56:54.950Z,48.25
2022-09-14T15:59:22.763Z,47.91
2022-09-14T16:01:49.939Z,47.66
2022-09-14T16:04:17.697Z,48.93
2022-09-14T16:06:45.207Z,50.51
2022-09-14T16:09:14.234Z,51.87
2022-09-14T16:11:41.559Z,50.00
2022-09-14T16:14:10.620Z,48.96
2022-09-14T16:16:38.821Z,49.76
2022-09-14T16:19:08.855Z,49.40
2022-09-14T16:21:36.713Z,47.32
2022-09-14T16:24:07.324Z,50.99
2022-09-14T16:26:36.329Z,51.75
2022-09-14T16:29:04.743Z,49.25
2022-09-14T16:31:34.730Z,50.29
2022-09-14T16:34:04.959Z,50.01
2022-09-14T16:36:35.083Z,50.95
2022-09-14T16:39:04.584Z,50.39
2022-09-14T16:41:32.431Z,50.97
2022-09-14T16:44:01.636Z,52.32
2022-09-14T16:46:30.367Z,53.34
2022-09-14T16:49:00.689Z,52.12
2022-09-14T16:51:29.831Z,52.78
2022-09-14T16:53:58.070Z,50.98
2022-09-14T16:56:27.900Z,49.96
2022-09-14T16:58:56.073Z,50.19
2022-09-14T17:01:24.678Z,50.02
2022-09-14T17:03:55.324Z,49.67
2022-09-14T17:06:26.683Z,49.66
2022-09-14T17:08:57.772Z,48.84
2022-09-14T17:11:24.653Z,48.33
2022-09-14T17:13:52.520Z,48.12
2022-09-14T17:16:21.405Z,48.30
2022-09-14T17:18:50.657Z,47.87
2022-09-14T17:21:23.528Z,48.66
2022-09-14T17:23:50.552Z,48.05
2022-09-14T17:26:19.396Z,48.62
2022-09-14T17:28:49.586Z,50.04
2022-09-14T17:31:21.405Z,51.26
2022-09-14T17:33:49.296Z,51.29
2022-09-14T17:36:17.103Z,52.33
2022-09-14T17:38:44.740Z,52.87
2022-09-14T17:41:22.474Z,52.89
2022-09-14T17:43:54.309Z,51.88
2022-09-14T17:46:24.659Z,50.83
2022-09-14T17:48:52.280Z,51.28
2022-09-14T17:51:21.722Z,50.20
2022-09-14T17:53:51.150Z,50.19
2022-09-14T17:56:20.729Z,50.81
2022-09-14T17:58:49.516Z,51.38
2022-09-14T18:01:19.612Z,51.45
2022-09-14T18:03:52.100Z,50.78
2022-09-14T18:06:19.933Z,51.08
2022-09-14T18:08:47.302Z,51.45
2022-09-14T18:11:17.117Z,51.27
2022-09-14T18:13:48.046Z,51.28
2022-09-14T18:16:16.390Z,50.93
2022-09-14T18:18:43.750Z,52.79
2022-09-14T18:21:11.511Z,53.34
2022-09-14T18:23:38.354Z,53.54
2022-09-14T18:26:07.071Z,53.48
2022-09-14T18:28:35.626Z,54.38
2022-09-14T18:31:10.411Z,53.58
2022-09-14T18:33:37.769Z,53.78
2022-09-14T18:36:06.290Z,53.59
2022-09-14T18:38:33.453Z,53.81
2022-09-14T18:41:07.891Z,53.63
2022-09-14T18:43:35.480Z,54.81
2022-09-14T18:46:07.312Z,55.01
2022-09-14T18:48:35.317Z,56.70
2022-09-14T18:51:05.006Z,56.41
2022-09-14T18:53:32.346Z,56.06
2022-09-14T18:56:03.557Z,55.53
2022-09-14T18:58:35.448Z,55.63
2022-09-14T19:01:03.417Z,55.49
2022-09-14T19:03:31.650Z,55.51
2022-09-14T19:06:03.783Z,55.97
2022-09-14T19:08:30.656Z,56.69
2022-09-14T19:10:58.330Z,56.80
2022-09-14T19:13:25.253Z,56.52
2022-09-14T19:15:52.202Z,55.86
2022-09-14T19:18:19.145Z,55.98
2022-09-14T19:21:06.036Z,56.02
2022-09-14T19:23:34.258Z,56.14
2022-09-14T19:26:06.351Z,56.19
2022-09-14T19:28:34.789Z,55.79
2022-09-14T19:31:09.800Z,56.92
2022-09-14T19:33:38.011Z,57.42
2022-09-14T19:36:10.007Z,57.53
2022-09-14T19:38:37.574Z,57.55
2022-09-14T19:41:05.900Z,57.54
2022-09-14T19:43:34.164Z,57.18
2022-09-14T19:46:03.509Z,56.72
2022-09-14T19:48:30.708Z,56.44
2022-09-14T19:51:02.070Z,55.99
2022-09-14T19:53:30.923Z,56.43
2022-09-14T19:55:58.358Z,57.32
2022-09-14T19:58:28.847Z,56.57
2022-09-14T20:00:56.980Z,56.94
2022-09-14T20:03:24.605Z,56.88
2022-09-14T20:06:11.493Z,56.46
2022-09-14T20:08:38.480Z,56.29
2022-09-14T20:11:11.091Z,56.65
2022-09-14T20:13:39.115Z,56.77
2022-09-14T20:16:36.908Z,56.70
2022-09-14T20:19:13.151Z,56.70
2022-09-14T20:21:41.544Z,56.23
2022-09-14T20:24:16.118Z,57.23
2022-09-14T20:26:49.511Z,56.74
2022-09-14T20:29:18.117Z,56.73
2022-09-14T20:31:45.985Z,56.71
2022-09-14T20:34:14.369Z,56.41
2022-09-14T20:36:41.451Z,56.25
2022-09-14T20:39:10.670Z,56.84
2022-09-14T20:41:37.713Z,56.81
2022-09-14T20:44:05.282Z,58.24
2022-09-14T20:46:35.321Z,57.71
2022-09-14T20:49:04.522Z,56.93
2022-09-14T20:51:31.913Z,56.68
2022-09-14T20:53:58.807Z,56.94
2022-09-14T20:56:28.284Z,61.14
2022-09-14T20:59:12.066Z,64.34
2022-09-14T21:01:46.583Z,68.15
2022-09-14T21:04:16.611Z,69.53
2022-09-14T21:06:46.669Z,70.07
2022-09-14T21:09:15.150Z,69.53
2022-09-14T21:11:42.713Z,70.10
2022-09-14T21:14:09.632Z,69.38
2022-09-14T21:16:42.805Z,67.94
2022-09-14T21:19:20.381Z,66.05
2022-09-14T21:21:48.743Z,65.92
2022-09-14T21:24:17.134Z,65.90
2022-09-14T21:26:44.447Z,65.70
2022-09-14T21:29:17.587Z,65.90
2022-09-14T21:31:45.107Z,65.99
2022-09-14T21:34:12.808Z,64.86
2022-09-14T21:36:42.981Z,64.34
2022-09-14T21:39:16.749Z,63.12
2022-09-14T21:41:44.974Z,63.13
2022-09-14T21:44:13.424Z,62.83
2022-09-14T21:46:40.667Z,61.94
2022-09-14T21:49:21.589Z,63.42
2022-09-14T21:51:48.904Z,62.86
2022-09-14T21:54:16.018Z,63.53
2022-09-14T21:56:44.549Z,64.29
2022-09-14T21:59:18.562Z,64.27
2022-09-14T22:01:46.706Z,63.62
2022-09-14T22:04:31.475Z,62.71
2022-09-14T22:06:59.397Z,62.92
2022-09-14T22:09:28.945Z,62.42
2022-09-14T22:11:57.017Z,62.19
2022-09-14T22:14:27.027Z,62.21
2022-09-14T22:16:54.520Z,61.91
2022-09-14T22:19:27.279Z,62.28
2022-09-14T22:21:55.160Z,63.16
2022-09-14T22:24:37.179Z,62.27
2022-09-14T22:27:07.760Z,61.63
2022-09-14T22:29:34.768Z,61.16
2022-09-14T22:32:01.866Z,60.40
2022-09-14T22:34:29.036Z,60.36
2022-09-14T22:36:56.022Z,60.49
2022-09-14T22:39:23.018Z,61.69
2022-09-14T22:41:50.384Z,61.56
2022-09-14T22:44:17.307Z,62.43
2022-09-14T22:46:44.430Z,62.31
2022-09-14T22:49:11.447Z,61.13
2022-09-14T22:51:38.427Z,60.61
2022-09-14T22:54:05.647Z,59.76
2022-09-14T22:56:35.435Z,61.20
2022-09-14T22:59:09.293Z,62.48
2022-09-14T23:01:39.925Z,63.61
2022-09-14T23:04:10.469Z,61.81
2022-09-14T23:06:47.638Z,63.32
2022-09-14T23:09:21.100Z,63.85
2022-09-14T23:11:48.476Z,63.74
2022-09-14T23:14:16.589Z,63.19
2022-09-14T23:16:45.399Z,62.86
2022-09-14T23:19:17.806Z,60.83
2022-09-14T23:21:45.075Z,60.85
2022-09-14T23:29:26.071Z,60.49
2022-09-14T23:32:36.080Z,60.22
2022-09-14T23:35:23.154Z,60.55
2022-09-14T23:38:54.709Z,60.29
2022-09-14T23:42:06.341Z,59.14
2022-09-14T23:45:05.821Z,57.62
2022-09-14T23:48:29.945Z,57.94
2022-09-14T23:54:51.493Z,56.81
2022-09-14T23:58:10.940Z,56.23
